Time;durP1;ratioP1;P1;durP2;ratioP2;P2;SDS_P1;SDS_P2;PMS_P1;PMS_P2;Temp;Humidity;BMP_temperature;BMP_pressure;BME280_temperature;BME280_humidity;BME280_pressure;Samples;Min_cycle;Max_cycle;Signal;HPM_P1;HPM_P2
2021/03/11 00:00:29;;;;;;;;;44.50;42.50;;;;;-1.53;49.90;102169.97;4868862;29;8886;-73
2021/03/11 00:03:25;;;;;;;;;76.75;61.00;;;;;-1.53;49.84;102169.97;4870647;29;8876;-72
2021/03/11 00:05:53;;;;;;;;;71.75;58.00;;;;;-1.55;49.92;102177.47;4870565;29;9590;-73
2021/03/11 00:08:21;;;;;;;;;45.50;33.75;;;;;-1.64;49.53;102172.50;4870759;29;9008;-73
2021/03/11 00:11:03;;;;;;;;;91.00;67.25;;;;;-1.67;49.11;102162.91;4871616;29;8895;-73
2021/03/11 00:13:30;;;;;;;;;97.25;75.00;;;;;-1.74;49.36;102165.63;4870128;29;8971;-72
2021/03/11 00:16:12;;;;;;;;;106.75;85.25;;;;;-1.61;49.31;102170.19;4855614;29;8871;-72
2021/03/11 00:19:07;;;;;;;;;97.00;75.00;;;;;-1.62;49.65;102178.53;4869399;29;9645;-73
2021/03/11 00:22:04;;;;;;;;;88.25;68.00;;;;;-1.55;48.72;102174.75;4869921;29;8990;-72
2021/03/11 00:24:32;;;;;;;;;84.50;66.50;;;;;-1.61;49.51;102175.63;4871402;29;8872;-73
2021/03/11 00:27:27;;;;;;;;;93.50;70.50;;;;;-1.42;49.52;102163.03;4868066;29;8854;-73
2021/03/11 00:30:24;;;;;;;;;82.25;64.00;;;;;-1.47;49.32;102169.06;4869271;29;8878;-73
2021/03/11 00:33:20;;;;;;;;;93.50;71.00;;;;;-1.51;48.97;102167.84;4868379;29;9019;-73
2021/03/11 00:36:15;;;;;;;;;94.25;70.75;;;;;-1.37;48.88;102162.38;4866177;29;8871;-72
2021/03/11 00:38:43;;;;;;;;;94.00;66.25;;;;;-1.53;48.75;102161.00;4854141;29;8888;-73
2021/03/11 00:41:11;;;;;;;;;100.75;75.00;;;;;-1.67;48.87;102156.66;4851606;29;8906;-73
2021/03/11 00:44:06;;;;;;;;;110.00;80.25;;;;;-1.53;48.56;102150.97;4857132;29;8867;-73
2021/03/11 00:47:04;;;;;;;;;78.75;61.00;;;;;-1.71;48.55;102153.53;4869153;29;8867;-72
2021/03/11 00:49:31;;;;;;;;;83.25;62.50;;;;;-1.62;48.68;102148.69;4869763;29;8985;-73
2021/03/11 00:52:27;;;;;;;;;60.75;50.50;;;;;-1.48;48.24;102151.13;4869328;29;8882;-72
2021/03/11 00:55:22;;;;;;;;;70.00;54.25;;;;;-1.40;48.26;102150.06;4868991;29;8870;-72
2021/03/11 00:58:18;;;;;;;;;49.25;47.00;;;;;-1.41;47.91;102137.53;4868519;29;8870;-73
2021/03/11 01:01:13;;;;;;;;;45.25;36.50;;;;;-1.56;47.75;102137.81;4857482;29;8915;-73
2021/03/11 01:04:09;;;;;;;;;36.33;34.67;;;;;-1.67;48.05;102141.22;4872711;29;9641;-73
2021/03/11 01:07:05;;;;;;;;;48.33;45.00;;;;;-1.50;47.63;102142.38;4860128;29;9679;-73
2021/03/11 01:10:00;;;;;;;;;48.33;39.33;;;;;-1.65;47.50;102141.81;4872115;29;8872;-72
2021/03/11 01:12:56;;;;;;;;;40.67;38.00;;;;;-1.41;46.96;102142.97;4871413;29;8883;-71
2021/03/11 01:15:51;;;;;;;;;11.67;11.67;;;;;-1.63;47.42;102139.72;4874479;29;8872;-72
2021/03/11 01:18:34;;;;;;;;;38.67;34.00;;;;;-1.67;47.60;102140.38;4857639;29;8898;-72
2021/03/11 01:21:29;;;;;;;;;35.33;33.67;;;;;-1.90;47.25;102135.44;4870558;29;8879;-72
2021/03/11 01:24:25;;;;;;;;;46.25;37.50;;;;;-1.66;47.15;102129.31;4872255;29;8874;-72
2021/03/11 01:26:52;;;;;;;;;46.50;39.50;;;;;-1.58;46.96;102137.19;4873797;29;8880;-72
2021/03/11 01:29:20;;;;;;;;;38.25;36.50;;;;;-1.52;47.45;102130.09;4872406;29;8909;-73
2021/03/11 01:31:56;;;;;;;;;40.00;39.00;;;;;-1.43;46.48;102129.63;4873418;29;8974;-73
2021/03/11 01:34:23;;;;;;;;;30.67;30.00;;;;;-1.49;46.82;102137.78;4872880;29;8887;-73
2021/03/11 01:37:05;;;;;;;;;30.33;26.67;;;;;-1.57;47.16;102138.88;4872760;29;8883;-73
2021/03/11 01:39:33;;;;;;;;;39.33;36.67;;;;;-1.43;47.09;102140.47;4871285;29;8878;-73
2021/03/11 01:42:15;;;;;;;;;21.33;21.33;;;;;-1.65;46.39;102135.56;4857186;29;8868;-73
2021/03/11 01:44:56;;;;;;;;;31.67;29.33;;;;;-1.37;46.48;102140.66;4872284;29;9009;-73
2021/03/11 01:47:24;;;;;;;;;39.00;34.75;;;;;-1.63;46.84;102139.72;4856391;29;8878;-73
2021/03/11 01:50:20;;;;;;;;;28.00;25.67;;;;;-1.49;46.95;102137.78;4871958;29;9002;-73
2021/03/11 01:53:16;;;;;;;;;35.00;32.67;;;;;-1.67;47.25;102140.38;4871182;29;8937;-72
2021/03/11 01:55:57;;;;;;;;;38.75;31.00;;;;;-1.66;47.70;102145.56;4870963;29;8959;-73
2021/03/11 01:58:40;;;;;;;;;33.33;32.33;;;;;-1.56;47.73;102155.97;4871545;29;8901;-72
2021/03/11 02:01:08;;;;;;;;;53.00;44.50;;;;;-1.59;47.28;102142.84;4871096;29;8879;-73
2021/03/11 02:03:41;;;;;;;;;53.50;47.25;;;;;-1.95;48.48;102144.19;4870388;29;8890;-73
2021/03/11 02:06:36;;;;;;;;;57.50;51.25;;;;;-2.12;48.48;102161.97;4871386;29;8878;-72
2021/03/11 02:09:05;;;;;;;;;66.50;51.75;;;;;-2.08;49.43;102145.03;4871695;29;9581;-72
2021/03/11 02:11:34;;;;;;;;;52.25;45.00;;;;;-1.98;48.86;102147.34;4873506;29;8860;-72
2021/03/11 02:14:15;;;;;;;;;53.00;48.75;;;;;-1.83;48.85;102149.81;4870297;29;8931;-73
2021/03/11 02:16:49;;;;;;;;;32.50;29.25;;;;;-2.03;48.93;102145.25;4871687;29;8879;-72
2021/03/11 02:19:54;;;;;;;;;57.50;49.50;;;;;-2.06;49.39;102156.53;4870716;29;8879;-72
2021/03/11 02:22:46;;;;;;;;;62.25;52.00;;;;;-2.09;49.77;102165.06;4871181;29;8926;-72
2021/03/11 02:25:31;;;;;;;;;43.25;40.75;;;;;-2.08;49.73;102149.63;4855862;29;8886;-72
2021/03/11 02:28:24;;;;;;;;;28.50;28.50;;;;;-1.85;49.34;102158.13;4857412;29;8872;-72
2021/03/11 02:31:21;;;;;;;;;19.50;19.50;;;;;-1.99;49.31;102157.38;4870532;29;8995;-72
2021/03/11 02:33:57;;;;;;;;;50.75;41.50;;;;;-2.03;49.22;102149.84;4870259;29;8865;-72
2021/03/11 02:36:26;;;;;;;;;42.25;37.25;;;;;-2.14;49.73;102162.19;4872859;29;8889;-72
2021/03/11 02:39:07;;;;;;;;;45.00;39.75;;;;;-1.97;49.70;102151.72;4870974;29;8898;-72
2021/03/11 02:41:38;;;;;;;;;40.25;32.50;;;;;-1.85;49.58;102157.31;4870973;29;8927;-73
2021/03/11 02:44:35;;;;;;;;;53.25;46.50;;;;;-1.87;49.10;102162.94;4871168;29;8979;-72
2021/03/11 02:47:32;;;;;;;;;37.75;34.75;;;;;-1.86;49.63;102151.06;4870910;29;8878;-72
2021/03/11 02:50:30;;;;;;;;;42.25;39.75;;;;;-1.76;49.14;102156.06;4869582;29;8871;-73
2021/03/11 02:53:26;;;;;;;;;34.00;34.00;;;;;-2.14;50.39;102148.63;4870856;29;8885;-72
2021/03/11 02:56:24;;;;;;;;;37.00;36.25;;;;;-2.07;50.37;102149.44;4872936;29;8894;-72
2021/03/11 02:59:21;;;;;;;;;29.00;29.00;;;;;-2.26;50.37;102155.72;4872012;29;8909;-71
2021/03/11 03:02:17;;;;;;;;;45.50;41.00;;;;;-2.27;50.72;102156.78;4870561;29;8864;-72
2021/03/11 03:04:50;;;;;;;;;25.25;24.50;;;;;-2.24;51.00;102154.47;4871830;29;8931;-72
2021/03/11 03:07:49;;;;;;;;;43.25;34.25;;;;;-2.29;51.27;102158.88;4868573;29;8867;-72
2021/03/11 03:10:45;;;;;;;;;42.75;39.75;;;;;-2.27;51.17;102160.31;4869274;29;8854;-72
2021/03/11 03:13:42;;;;;;;;;34.00;28.00;;;;;-2.30;51.58;102165.31;4872812;29;8935;-73
2021/03/11 03:16:39;;;;;;;;;45.00;41.75;;;;;-2.31;51.28;102164.47;4870488;29;8974;-72
2021/03/11 03:19:38;;;;;;;;;38.25;36.00;;;;;-2.34;51.46;102166.78;4857875;29;8934;-73
2021/03/11 03:22:21;;;;;;;;;37.50;37.25;;;;;-2.39;51.21;102170.09;4870793;29;8907;-73
2021/03/11 03:24:50;;;;;;;;;36.50;36.00;;;;;-2.25;51.15;102169.06;4860871;29;8875;-73
2021/03/11 03:27:26;;;;;;;;;44.00;37.25;;;;;-2.21;51.08;102166.78;4855869;29;8896;-72
2021/03/11 03:30:10;;;;;;;;;28.50;22.00;;;;;-2.39;51.14;102177.41;4868310;29;8880;-72
2021/03/11 03:32:38;;;;;;;;;34.50;32.50;;;;;-2.51;51.13;102174.50;4851532;29;8952;-73
2021/03/11 03:35:35;;;;;;;;;27.00;26.75;;;;;-2.60;51.40;102165.75;4866130;29;9000;-72
2021/03/11 03:38:02;;;;;;;;;42.25;40.25;;;;;-2.41;51.02;102164.06;4869279;29;8860;-72
2021/03/11 03:40:44;;;;;;;;;28.00;26.00;;;;;-2.55;51.09;102148.84;4869218;29;8905;-71
2021/03/11 03:43:41;;;;;;;;;29.75;28.00;;;;;-2.59;51.10;102148.44;4855573;29;8941;-72
2021/03/11 03:46:39;;;;;;;;;35.25;33.00;;;;;-2.39;50.69;102161.13;4871266;29;8871;-72
2021/03/11 03:49:35;;;;;;;;;32.75;28.00;;;;;-2.19;50.59;102150.28;4856713;29;8890;-72
2021/03/11 03:52:32;;;;;;;;;27.00;25.67;;;;;-2.54;50.91;102153.22;4856621;29;8966;-72
2021/03/11 03:55:17;;;;;;;;;25.67;23.33;;;;;-2.47;50.89;102166.78;4867569;29;8880;-72
2021/03/11 03:57:51;;;;;;;;;27.75;27.75;;;;;-2.52;51.29;102156.56;4854542;29;8872;-72
2021/03/11 04:00:21;;;;;;;;;31.75;28.00;;;;;-2.51;50.80;102163.66;4870668;29;8870;-72
2021/03/11 04:02:53;;;;;;;;;34.50;30.75;;;;;-2.63;51.20;102168.84;4869388;29;8904;-72
2021/03/11 04:05:22;;;;;;;;;39.50;33.50;;;;;-2.64;51.29;102180.72;4867999;29;8872;-73
2021/03/11 04:07:53;;;;;;;;;31.00;29.50;;;;;-2.59;51.55;102178.25;4869588;29;9083;-72
2021/03/11 04:10:20;;;;;;;;;26.75;26.75;;;;;-2.50;51.37;102180.75;4868697;29;8902;-72
2021/03/11 04:13:03;;;;;;;;;46.50;37.50;;;;;-2.45;51.71;102186.34;4868373;29;8909;-72
2021/03/11 04:15:58;;;;;;;;;34.25;34.25;;;;;-2.35;51.10;102182.19;4869726;29;8874;-72
2021/03/11 04:19:02;;;;;;;;;55.25;43.00;;;;;-2.32;51.02;102180.94;4869034;29;8985;-72
2021/03/11 04:21:31;;;;;;;;;49.25;46.00;;;;;-2.28;50.81;102188.47;4854881;29;9035;-73
2021/03/11 04:24:00;;;;;;;;;61.25;51.00;;;;;-2.34;51.05;102183.88;4869050;29;8909;-73
2021/03/11 04:26:29;;;;;;;;;39.50;35.25;;;;;-2.37;50.71;102183.47;4870433;29;8967;-73
2021/03/11 04:29:06;;;;;;;;;38.50;37.75;;;;;-2.51;50.99;102182.63;4871066;29;8878;-73
2021/03/11 04:32:03;;;;;;;;;25.50;19.75;;;;;-2.53;50.63;102182.84;4868035;29;8839;-73
2021/03/11 04:34:32;;;;;;;;;36.75;34.25;;;;;-2.54;51.02;102185.72;4867659;29;9648;-72
2021/03/11 04:37:09;;;;;;;;;22.25;20.50;;;;;-2.55;51.09;102189.47;4856426;29;8959;-72
2021/03/11 04:40:07;;;;;;;;;23.00;20.00;;;;;-2.60;50.46;102187.41;4871108;29;8932;-72
2021/03/11 04:42:36;;;;;;;;;30.50;30.50;;;;;-2.56;51.29;102194.06;4858392;29;8903;-72
2021/03/11 04:45:07;;;;;;;;;26.00;24.50;;;;;-2.55;50.93;102195.72;4855909;29;8902;-72
2021/03/11 04:47:36;;;;;;;;;40.75;33.00;;;;;-2.33;51.10;102201.78;4873450;29;8913;-72
2021/03/11 04:50:05;;;;;;;;;42.50;38.50;;;;;-2.48;51.13;102201.16;4874458;29;9082;-71
2021/03/11 04:52:37;;;;;;;;;38.00;35.00;;;;;-2.34;51.36;102202.84;4856555;29;8927;-72
2021/03/11 04:55:05;;;;;;;;;36.75;35.50;;;;;-2.28;51.25;102203.88;4873858;29;8897;-72
2021/03/11 04:57:36;;;;;;;;;32.50;31.50;;;;;-2.42;51.39;102204.94;4856647;29;8878;-72
2021/03/11 05:00:05;;;;;;;;;62.50;46.00;;;;;-2.28;51.10;102209.31;4871891;29;8864;-72
2021/03/11 05:03:06;;;;;;;;;48.25;42.50;;;;;-2.21;50.97;102212.03;4872326;29;9002;-72
2021/03/11 05:06:01;;;;;;;;;56.75;48.00;;;;;-2.34;51.28;102219.09;4872232;29;9565;-72
2021/03/11 05:08:57;;;;;;;;;53.00;45.00;;;;;-2.18;50.83;102219.72;4872090;29;8871;-73
2021/03/11 05:11:52;;;;;;;;;54.50;45.50;;;;;-2.02;51.38;102222.84;4873640;29;8968;-72
2021/03/11 05:14:19;;;;;;;;;54.50;48.00;;;;;-2.03;50.69;102226.59;4873249;29;8891;-72
2021/03/11 05:16:46;;;;;;;;;43.00;43.00;;;;;-2.06;50.68;102231.63;4873717;29;8907;-72
2021/03/11 05:19:14;;;;;;;;;61.00;52.25;;;;;-1.81;50.68;102229.09;4871976;29;9632;-72
2021/03/11 05:21:55;;;;;;;;;48.25;45.75;;;;;-2.00;50.14;102234.31;4872051;29;8973;-72
2021/03/11 05:24:53;;;;;;;;;40.25;37.00;;;;;-1.82;49.91;102235.56;4870508;29;8866;-72
2021/03/11 05:27:49;;;;;;;;;51.00;45.50;;;;;-1.82;50.03;102235.56;4871848;29;8909;-72
2021/03/11 05:30:45;;;;;;;;;43.25;43.25;;;;;-1.91;49.86;102237.66;4871703;29;8880;-72
2021/03/11 05:33:13;;;;;;;;;79.50;57.75;;;;;-1.80;49.58;102239.72;4872911;29;8971;-70
2021/03/11 05:35:41;;;;;;;;;62.75;44.00;;;;;-1.59;49.61;102235.09;4871923;29;9773;-71
2021/03/11 05:38:27;;;;;;;;;44.75;39.25;;;;;-1.56;49.18;102232.78;4873944;29;8993;-70
2021/03/11 05:40:54;;;;;;;;;58.50;53.00;;;;;-1.44;49.14;102233.81;4871401;29;8906;-70
2021/03/11 05:43:51;;;;;;;;;42.50;36.50;;;;;-1.44;48.59;102233.81;4872333;29;9652;-70
2021/03/11 05:46:47;;;;;;;;;39.67;33.67;;;;;-1.25;48.52;102237.47;4870412;29;8856;-71
2021/03/11 05:49:42;;;;;;;;;56.50;42.25;;;;;-1.37;48.02;102238.38;4870636;29;8860;-71
2021/03/11 05:52:38;;;;;;;;;36.67;30.67;;;;;-1.01;48.05;102235.09;4858219;29;8863;-71
2021/03/11 05:55:36;;;;;;;;;50.00;46.00;;;;;-1.27;48.09;102241.47;4857658;29;8888;-71
2021/03/11 05:58:07;;;;;;;;;50.25;44.50;;;;;-1.03;47.80;102242.63;4839947;29;8880;-71
2021/03/11 06:00:36;;;;;;;;;57.25;47.75;;;;;-1.23;48.01;102251.66;4872711;29;8942;-71
2021/03/11 06:03:33;;;;;;;;;41.00;40.67;;;;;-1.29;48.19;102247.13;4871420;29;8911;-70
2021/03/11 06:06:02;;;;;;;;;34.33;32.33;;;;;-1.19;48.25;102241.22;4873076;29;8864;-70
2021/03/11 06:08:58;;;;;;;;;27.67;24.67;;;;;-1.41;48.17;102246.94;4869988;29;8879;-69
2021/03/11 06:11:55;;;;;;;;;27.67;24.67;;;;;-1.19;48.27;102246.66;4869744;29;8859;-70
2021/03/11 06:14:57;;;;;;;;;31.67;31.67;;;;;-1.20;48.32;102247.72;4872487;29;8884;-71
2021/03/11 06:17:54;;;;;;;;;21.67;21.33;;;;;-1.27;48.81;102249.63;4859499;29;8867;-71
2021/03/11 06:20:49;;;;;;;;;33.67;30.33;;;;;-1.30;48.54;102255.47;4858498;29;9685;-71
2021/03/11 06:23:45;;;;;;;;;29.00;24.00;;;;;-1.08;48.12;102254.13;4870587;29;8855;-70
2021/03/11 06:26:40;;;;;;;;;25.00;25.00;;;;;-1.07;48.79;102255.81;4859047;29;8902;-70
2021/03/11 06:29:40;;;;;;;;;21.00;21.00;;;;;-0.92;48.70;102264.53;4871432;29;8882;-70
2021/03/11 06:32:53;;;;;;;;;35.00;29.33;;;;;-0.73;47.43;102261.91;4870733;29;8872;-72
2021/03/11 06:35:21;;;;;;;;;36.00;34.67;;;;;-0.28;47.70;102265.38;4869980;29;8918;-72
2021/03/11 06:38:02;;;;;;;;;30.67;21.33;;;;;-0.47;47.19;102263.63;4872289;29;8902;-72
2021/03/11 06:40:58;;;;;;;;;27.67;27.00;;;;;-0.60;46.96;102272.72;4871566;29;8848;-72
2021/03/11 06:44:01;;;;;;;;;41.67;35.00;;;;;-0.80;48.16;102264.66;4871478;29;8890;-71
2021/03/11 06:46:59;;;;;;;;;25.00;25.00;;;;;-0.91;47.56;102274.34;4871965;29;9709;-71
2021/03/11 06:49:57;;;;;;;;;47.33;37.33;;;;;-0.69;47.66;102282.16;4870871;29;8871;-70
2021/03/11 06:53:01;;;;;;;;;40.67;37.00;;;;;-0.51;46.54;102279.56;4866879;29;8907;-71
2021/03/11 06:56:17;;;;;;;;;42.67;34.00;;;;;-0.28;47.16;102271.66;4870962;29;8859;-70
2021/03/11 06:59:13;;;;;;;;;25.67;24.67;;;;;-0.01;45.81;102283.16;4871851;29;8855;-71
2021/03/11 07:01:52;;;;;;;;;24.00;23.67;;;;;-0.24;45.88;102277.47;4870384;29;8872;-71
2021/03/11 07:04:23;;;;;;;;;35.33;33.33;;;;;-0.17;45.77;102277.44;4872950;29;9776;-71
2021/03/11 07:06:51;;;;;;;;;33.67;33.67;;;;;-0.10;46.13;102284.50;4870851;29;8862;-69
2021/03/11 07:09:19;;;;;;;;;38.33;31.67;;;;;0.07;45.57;102281.22;4869461;29;8914;-70
2021/03/11 07:12:00;;;;;;;;;29.00;29.00;;;;;0.20;45.32;102281.94;4855896;29;9006;-70
2021/03/11 07:14:28;;;;;;;;;36.67;36.00;;;;;0.37;45.29;102289.53;4853880;29;8898;-71
2021/03/11 07:17:23;;;;;;;;;32.67;31.33;;;;;0.03;45.55;102286.28;4871510;29;8870;-71
2021/03/11 07:20:17;;;;;;;;;23.67;21.33;;;;;0.25;44.84;102278.56;4870245;29;8953;-71
2021/03/11 07:23:16;;;;;;;;;22.67;22.67;;;;;0.71;45.03;102283.53;4870203;29;8893;-71
2021/03/11 07:26:12;;;;;;;;;30.33;28.00;;;;;0.39;44.46;102282.00;4869563;29;8912;-70
2021/03/11 07:29:18;;;;;;;;;22.00;21.33;;;;;1.08;43.64;102278.09;4857877;29;8907;-71
2021/03/11 07:32:15;;;;;;;;;37.00;31.00;;;;;0.49;44.21;102296.75;4869737;29;8883;-71
2021/03/11 07:34:51;;;;;;;;;22.00;19.00;;;;;0.76;44.06;102297.28;4869667;29;8875;-70
2021/03/11 07:37:20;;;;;;;;;20.33;19.33;;;;;0.74;44.29;102293.97;4869175;29;8863;-71
2021/03/11 07:40:10;;;;;;;;;32.00;30.33;;;;;0.49;44.59;102288.59;4869930;29;8910;-72
2021/03/11 07:42:54;;;;;;;;;36.67;29.67;;;;;0.79;43.78;102296.03;4869607;29;9604;-72
2021/03/11 07:45:29;;;;;;;;;28.00;28.00;;;;;0.73;43.64;102289.59;4854780;29;8884;-70
2021/03/11 07:48:24;;;;;;;;;15.33;15.33;;;;;0.67;42.58;102293.19;4868820;29;8859;-70
2021/03/11 07:51:22;;;;;;;;;16.67;16.67;;;;;0.73;43.28;102286.84;4857517;29;8878;-70
2021/03/11 07:54:20;;;;;;;;;22.67;22.67;;;;;0.67;43.51;102293.19;4869641;29;8871;-71
2021/03/11 07:57:16;;;;;;;;;21.00;17.33;;;;;1.53;43.00;102300.31;4870096;29;8862;-70
2021/03/11 08:00:15;;;;;;;;;10.33;10.33;;;;;1.22;42.12;102286.91;4868312;29;8978;-71
2021/03/11 08:03:27;;;;;;;;;16.67;16.67;;;;;1.12;41.66;102295.63;4868896;29;8890;-71
2021/03/11 08:06:25;;;;;;;;;15.00;14.00;;;;;1.36;41.09;102291.13;4857007;29;9619;-71
2021/03/11 08:08:54;;;;;;;;;20.00;20.00;;;;;1.29;41.20;102299.38;4869187;29;9617;-72
2021/03/11 08:11:38;;;;;;;;;23.67;20.00;;;;;1.08;40.91;102297.16;4866697;29;8911;-71
2021/03/11 08:14:25;;;;;;;;;17.67;15.67;;;;;1.32;40.46;102288.03;4849531;29;8882;-71
2021/03/11 08:17:35;;;;;;;;;13.00;13.00;;;;;1.44;41.02;102300.88;4868501;29;8884;-70
2021/03/11 08:20:31;;;;;;;;;20.00;17.00;;;;;1.88;40.14;102294.16;4866783;29;8860;-71
2021/03/11 08:23:03;;;;;;;;;17.67;17.00;;;;;1.60;39.91;102286.59;4854564;29;8892;-72
2021/03/11 08:25:33;;;;;;;;;17.67;16.00;;;;;1.40;39.93;102286.88;4837773;29;11739;-71
2021/03/11 08:28:22;;;;;;;;;16.00;16.00;;;;;1.99;39.51;102282.41;4868661;29;9652;-71
2021/03/11 08:31:08;;;;;;;;;18.00;17.33;;;;;1.83;38.73;102289.38;4864534;29;8883;-72
2021/03/11 08:34:04;;;;;;;;;16.67;16.67;;;;;2.60;38.07;102291.22;4868181;29;8886;-71
2021/03/11 08:36:36;;;;;;;;;13.33;13.33;;;;;2.26;37.16;102291.00;4870214;29;8860;-72
2021/03/11 08:39:33;;;;;;;;;18.67;17.33;;;;;2.04;39.29;102293.47;4869295;29;8897;-72
2021/03/11 08:42:49;;;;;;;;;8.00;8.00;;;;;2.00;38.80;102281.38;4868184;29;8863;-73
2021/03/11 08:45:37;;;;;;;;;16.00;15.33;;;;;2.55;38.99;102283.78;4868634;29;8871;-73
2021/03/11 08:48:23;;;;;;;;;7.67;7.67;;;;;2.19;38.68;102285.66;4870158;29;11739;-71
2021/03/11 08:51:18;;;;;;;;;17.00;14.67;;;;;2.84;38.33;102284.69;4855384;29;11649;-71
2021/03/11 08:54:21;;;;;;;;;17.33;17.33;;;;;3.31;38.88;102282.66;4866837;29;11832;-72
2021/03/11 08:57:42;;;;;;;;;17.00;15.75;;;;;3.71;37.92;102273.56;4869422;29;9586;-71
2021/03/11 09:00:53;;;;;;;;;22.50;18.75;;;;;3.63;38.88;102288.47;4868547;29;11793;-71
2021/03/11 09:03:46;;;;;;;;;20.50;15.00;;;;;3.04;37.19;102282.38;4856537;29;11885;-72
2021/03/11 09:07:11;;;;;;;;;12.25;11.50;;;;;3.23;36.80;102276.75;4868437;29;11697;-72
2021/03/11 09:10:17;;;;;;;;;9.00;5.00;;;;;3.12;35.96;102269.41;4868696;29;11745;-72
2021/03/11 09:12:58;;;;;;;;;16.00;15.25;;;;;2.87;36.28;102284.19;4868720;29;11688;-72
2021/03/11 09:15:26;;;;;;;;;40.00;28.00;;;;;2.95;35.96;102272.06;4851742;29;12562;-72
2021/03/11 09:18:22;;;;;;;;;15.75;15.75;;;;;3.18;36.68;102280.19;4855829;29;11710;-72
2021/03/11 09:21:17;;;;;;;;;18.00;15.75;;;;;3.55;35.79;102283.38;4867891;29;11782;-72
2021/03/11 09:23:45;;;;;;;;;22.50;19.75;;;;;3.33;36.46;102279.69;4872212;29;11718;-72
2021/03/11 09:26:40;;;;;;;;;18.25;16.00;;;;;4.16;36.02;102276.25;4872306;29;11838;-71
2021/03/11 09:29:47;;;;;;;;;12.75;12.25;;;;;3.69;34.92;102264.75;4871418;29;11712;-72
2021/03/11 09:32:43;;;;;;;;;10.50;6.00;;;;;4.17;34.86;102272.41;4870720;29;11911;-71
2021/03/11 09:35:13;;;;;;;;;21.50;18.50;;;;;4.27;34.06;102276.41;4872969;29;11712;-74
2021/03/11 09:38:11;;;;;;;;;17.00;17.00;;;;;4.10;34.11;102273.66;4870033;29;12530;-71
2021/03/11 09:41:07;;;;;;;;;15.50;14.50;;;;;4.46;34.09;102286.03;4872700;29;11764;-70
2021/03/11 09:43:53;;;;;;;;;19.75;19.00;;;;;4.11;34.37;102275.31;4872650;29;11726;-72
2021/03/11 09:46:49;;;;;;;;;12.00;12.00;;;;;4.64;33.56;102276.69;4869858;29;12478;-71
2021/03/11 09:49:44;;;;;;;;;12.00;12.00;;;;;5.16;33.25;102273.53;4871129;29;11796;-71
2021/03/11 09:52:57;;;;;;;;;8.50;8.50;;;;;4.50;33.86;102273.47;4871061;29;11798;-72
2021/03/11 09:55:33;;;;;;;;;13.50;13.50;;;;;3.83;33.88;102270.72;4855651;29;11736;-71
2021/03/11 09:58:29;;;;;;;;;7.75;7.75;;;;;3.68;35.52;102270.47;4858548;29;11712;-71
2021/03/11 10:01:38;;;;;;;;;14.75;14.75;;;;;4.70;34.52;102265.53;4871826;29;11636;-71
2021/03/11 10:04:34;;;;;;;;;12.50;11.75;;;;;4.80;33.80;102269.50;4871015;29;11694;-72
2021/03/11 10:07:03;;;;;;;;;8.75;7.50;;;;;5.05;33.04;102252.53;4871947;29;11694;-72
2021/03/11 10:09:39;;;;;;;;;20.00;15.50;;;;;5.32;33.25;102252.59;4871106;29;11667;-71
2021/03/11 10:12:36;;;;;;;;;14.25;13.00;;;;;5.17;32.36;102261.47;4870221;29;11737;-72
2021/03/11 10:15:31;;;;;;;;;13.00;11.00;;;;;5.27;31.45;102253.34;4858181;29;11709;-72
2021/03/11 10:18:08;;;;;;;;;15.00;13.75;;;;;5.56;31.24;102253.94;4871472;29;11769;-72
2021/03/11 10:20:40;;;;;;;;;13.75;13.75;;;;;5.16;31.71;102244.19;4870792;29;11718;-72
2021/03/11 10:23:22;;;;;;;;;11.50;11.50;;;;;5.20;32.34;102256.28;4868335;29;11704;-72
2021/03/11 10:26:12;;;;;;;;;15.50;13.75;;;;;4.78;32.84;102250.56;4860916;29;11693;-73
2021/03/11 10:29:06;;;;;;;;;13.00;13.00;;;;;3.98;32.97;102240.88;4871728;29;12448;-72
2021/03/11 10:32:05;;;;;;;;;11.75;11.75;;;;;3.98;33.25;102245.53;4870425;29;11737;-72
2021/03/11 10:35:00;;;;;;;;;19.50;17.50;;;;;4.99;33.06;102236.03;4870842;29;11732;-73
2021/03/11 10:37:40;;;;;;;;;17.00;17.00;;;;;5.44;32.17;102243.09;4867081;29;11724;-72
2021/03/11 10:40:35;;;;;;;;;8.25;8.25;;;;;6.03;31.56;102245.88;4869249;29;11689;-73
2021/03/11 10:43:31;;;;;;;;;21.00;16.25;;;;;5.85;30.55;102241.59;4871182;29;12416;-72
2021/03/11 10:46:30;;;;;;;;;16.50;13.25;;;;;6.40;30.92;102237.63;4871134;29;11733;-71
2021/03/11 10:49:45;;;;;;;;;14.00;14.00;;;;;5.25;31.48;102225.34;4870446;29;11684;-72
2021/03/11 10:52:22;;;;;;;;;12.00;12.00;;;;;4.96;31.17;102217.34;4857081;29;11753;-72
2021/03/11 10:55:31;;;;;;;;;17.00;16.25;;;;;5.58;32.17;102218.81;4869992;29;11719;-73
2021/03/11 10:58:27;;;;;;;;;17.25;17.25;;;;;5.17;32.53;102206.59;4871409;29;11714;-72
2021/03/11 11:01:25;;;;;;;;;21.25;19.50;;;;;5.47;32.26;102222.56;4857378;29;11835;-72
2021/03/11 11:04:21;;;;;;;;;17.75;17.75;;;;;6.09;32.20;102211.03;4869506;29;11729;-72
2021/03/11 11:07:18;;;;;;;;;13.00;12.50;;;;;5.76;31.47;102204.72;4868826;29;11841;-73
2021/03/11 11:10:16;;;;;;;;;18.00;13.25;;;;;5.50;30.94;102205.56;4870278;29;11682;-72
2021/03/11 11:13:12;;;;;;;;;13.00;13.00;;;;;5.45;31.15;102206.38;4867469;29;11751;-72
2021/03/11 11:16:09;;;;;;;;;12.25;12.25;;;;;5.61;30.88;102203.75;4859116;29;12581;-72
2021/03/11 11:19:04;;;;;;;;;16.25;14.75;;;;;5.43;31.29;102193.97;4869436;29;11755;-73
2021/03/11 11:22:00;;;;;;;;;22.00;20.50;;;;;5.91;31.00;102190.31;4871365;29;12472;-73
2021/03/11 11:24:32;;;;;;;;;14.50;14.50;;;;;6.00;31.08;102207.13;4855855;29;11835;-72
2021/03/11 11:27:28;;;;;;;;;14.25;14.25;;;;;5.73;31.02;102202.47;4857559;29;11701;-72
2021/03/11 11:30:24;;;;;;;;;13.50;13.50;;;;;6.01;29.83;102211.53;4854892;29;11705;-72
2021/03/11 11:32:53;;;;;;;;;13.25;13.25;;;;;6.43;29.43;102202.44;4855854;29;11709;-73
2021/03/11 11:35:50;;;;;;;;;16.00;16.00;;;;;6.14;30.52;102186.38;4870212;29;11877;-72
2021/03/11 11:38:19;;;;;;;;;13.25;13.00;;;;;6.17;30.34;102196.81;4870292;29;11731;-72
2021/03/11 11:40:47;;;;;;;;;12.50;12.50;;;;;4.71;32.28;102190.44;4872713;29;11698;-72
2021/03/11 11:43:15;;;;;;;;;16.75;16.75;;;;;5.64;32.12;102193.06;4868552;29;11700;-71
2021/03/11 11:46:11;;;;;;;;;13.25;13.25;;;;;5.92;30.81;102186.47;4868482;29;11732;-72
2021/03/11 11:49:07;;;;;;;;;15.25;15.25;;;;;5.53;31.11;102188.59;4857220;29;11802;-72
2021/03/11 11:52:02;;;;;;;;;15.50;14.50;;;;;6.32;29.37;102199.66;4869473;29;11805;-72
2021/03/11 11:54:45;;;;;;;;;14.50;14.50;;;;;5.47;31.16;102193.19;4870391;29;11754;-72
2021/03/11 11:57:27;;;;;;;;;13.75;13.50;;;;;4.47;32.41;102178.09;4870602;29;12518;-71
2021/03/11 12:00:23;;;;;;;;;13.00;13.00;;;;;3.90;33.84;102189.28;4856910;29;11728;-73
2021/03/11 12:03:18;;;;;;;;;11.25;11.00;;;;;3.98;33.38;102179.81;4868585;29;11766;-74
2021/03/11 12:06:14;;;;;;;;;13.00;13.00;;;;;4.92;32.51;102174.25;4868749;29;11747;-72
2021/03/11 12:08:55;;;;;;;;;24.25;15.75;;;;;4.05;32.05;102180.47;4855365;29;11713;-73
2021/03/11 12:11:51;;;;;;;;;19.00;19.00;;;;;4.20;32.26;102183.44;4858009;29;11714;-73
2021/03/11 12:14:36;;;;;;;;;10.75;10.75;;;;;5.21;31.51;102172.94;4867140;29;11731;-74
2021/03/11 12:17:17;;;;;;;;;7.00;7.00;;;;;5.59;31.03;102171.88;4854208;29;11770;-73
2021/03/11 12:20:13;;;;;;;;;21.25;17.50;;;;;5.11;31.41;102175.56;4856470;29;12456;-71
2021/03/11 12:23:09;;;;;;;;;12.75;12.25;;;;;4.66;31.99;102165.72;4857228;29;11879;-72
2021/03/11 12:26:05;;;;;;;;;14.50;14.50;;;;;4.62;32.31;102175.53;4864796;29;12493;-73
2021/03/11 12:29:01;;;;;;;;;8.00;8.00;;;;;4.99;31.92;102174.88;4869230;29;11791;-73
2021/03/11 12:31:56;;;;;;;;;11.50;11.50;;;;;4.53;32.05;102166.13;4867970;29;11647;-72
2021/03/11 12:34:52;;;;;;;;;11.75;11.75;;;;;4.24;32.82;102170.09;4869244;29;11715;-73
2021/03/11 12:37:49;;;;;;;;;49.33;44.33;;;;;3.87;33.66;102178.84;4868451;29;11754;-72
2021/03/11 12:40:45;;;;;;;;;14.50;14.50;;;;;4.21;33.47;102171.41;4869054;29;11828;-72
2021/03/11 12:43:41;;;;;;;;;14.75;13.25;;;;;4.52;32.67;102183.59;4865384;29;11731;-72
2021/03/11 12:46:37;;;;;;;;;27.50;21.25;;;;;3.96;33.86;102174.59;4867922;29;12429;-73
2021/03/11 12:49:32;;;;;;;;;14.25;14.25;;;;;4.19;33.62;102195.47;4868996;29;11728;-72
2021/03/11 12:52:28;;;;;;;;;12.00;11.75;;;;;4.87;32.48;102188.72;4868674;29;11715;-72